^^
Saratoga-Weather Station Historical Data
Daily Summary for November 10, 2020 Units:  Metric    English   Both
Daily Weekly Monthly Yearly Custom
  High: Low: Average:
Temperature: 8.2 °C 6.8 °C 7.5 °C
Dew Point: 7.6 °C 6.2 °C 6.9 °C
Humidity: 97% 96% 96%
Wind Speed: 0km/h 0km/h 0km/h
Wind Gust: 0km/h - -
Wind- -
Pressure: 1024.0 hPa 1023.4 hPa -
Precipitation: 0.2 mm    
Historical Graphs
 
 
Tabular Data for November 10, 2020
Time Temperature Dew Point Pressure Wind Wind Speed Wind Gust Humidity Rainfall Rate (Hourly) solar
00:02 8 °C 7.4 °C 1023.4 hPa Calm     96% 0.0 mm 0 W/m2
00:07 8.1 °C 7.5 °C 1023.4 hPa Calm     96% 0.0 mm 0 W/m2
00:12 8.2 °C 7.6 °C 1023.4 hPa Calm     96% 0.0 mm 0 W/m2
00:17 8.2 °C 7.6 °C 1023.7 hPa Calm     96% 0.0 mm 0 W/m2
00:22 8.1 °C 7.5 °C 1023.4 hPa Calm     96% 0.0 mm 0 W/m2
00:27 8 °C 7.4 °C 1023.7 hPa Calm     96% 0.0 mm 0 W/m2
00:32 8 °C 7.4 °C 1023.7 hPa Calm     96% 0.0 mm 0 W/m2
00:37 8 °C 7.4 °C 1023.7 hPa Calm     96% 0.0 mm 0 W/m2
00:42 7.9 °C 7.3 °C 1023.7 hPa Calm     96% 0.0 mm 0 W/m2
00:47 7.8 °C 7.2 °C 1023.7 hPa Calm     96% 0.0 mm 0 W/m2
00:52 7.8 °C 7.2 °C 1023.7 hPa Calm     96% 0.0 mm 0 W/m2
00:57 7.8 °C 7.2 °C 1023.7 hPa Calm     96% 0.0 mm 0 W/m2
01:02 7.8 °C 7.2 °C 1023.7 hPa Calm     96% 0.0 mm 0 W/m2
01:07 7.9 °C 7.5 °C 1023.7 hPa Calm     97% 0.0 mm 0 W/m2
01:12 7.9 °C 7.5 °C 1023.7 hPa Calm     97% 0.0 mm 0 W/m2
01:17 7.9 °C 7.3 °C 1023.7 hPa Calm     96% 0.0 mm 0 W/m2
01:22 7.9 °C 7.3 °C 1023.7 hPa Calm     96% 0.0 mm 0 W/m2
01:27 7.8 °C 7.2 °C 1023.7 hPa Calm     96% 0.0 mm 0 W/m2
01:32 7.8 °C 7.2 °C 1023.7 hPa Calm     96% 0.0 mm 0 W/m2
01:37 7.8 °C 7.2 °C 1023.7 hPa Calm     96% 0.0 mm 0 W/m2
01:42 7.7 °C 7.1 °C 1023.7 hPa Calm     96% 0.0 mm 0 W/m2
01:47 7.6 °C 7 °C 1023.7 hPa Calm     96% 0.0 mm 0 W/m2
01:52 7.6 °C 7 °C 1023.7 hPa Calm     96% 0.0 mm 0 W/m2
01:57 7.4 °C 6.8 °C 1023.7 hPa Calm     96% 0.0 mm 0 W/m2
02:02 7.3 °C 6.7 °C 1023.7 hPa Calm     96% 0.0 mm 0 W/m2
02:07 7.3 °C 6.7 °C 1023.7 hPa Calm     96% 0.0 mm 0 W/m2
02:12 7.2 °C 6.6 °C 1023.7 hPa Calm     96% 0.0 mm 0 W/m2
02:17 7.2 °C 6.6 °C 1023.7 hPa Calm     96% 0.0 mm 0 W/m2
02:22 7.2 °C 6.6 °C 1023.7 hPa Calm     96% 0.0 mm 0 W/m2
02:27 7.3 °C 6.7 °C 1023.7 hPa Calm     96% 0.0 mm 0 W/m2
02:32 7.3 °C 6.7 °C 1023.7 hPa Calm     96% 0.0 mm 0 W/m2
02:37 7.2 °C 6.6 °C 1023.7 hPa Calm     96% 0.0 mm 0 W/m2
02:42 7.1 °C 6.5 °C 1023.7 hPa Calm     96% 0.0 mm 0 W/m2
02:47 7.2 °C 6.6 °C 1023.7 hPa Calm     96% 0.0 mm 0 W/m2
02:52 7.2 °C 6.8 °C 1023.7 hPa Calm     97% 0.0 mm 0 W/m2
02:57 7.3 °C 6.9 °C 1023.7 hPa Calm     97% 0.0 mm 0 W/m2
03:02 7.3 °C 6.9 °C 1023.7 hPa Calm     97% 0.0 mm 0 W/m2
03:07 7.2 °C 6.8 °C 1023.7 hPa Calm     97% 0.0 mm 0 W/m2
03:12 7.1 °C 6.7 °C 1024.0 hPa Calm     97% 0.0 mm 0 W/m2
03:17 7 °C 6.6 °C 1024.0 hPa Calm     97% 0.0 mm 0 W/m2
03:22 6.9 °C 6.3 °C 1024.0 hPa Calm     96% 0.0 mm 0 W/m2
03:27 6.8 °C 6.2 °C 1024.0 hPa Calm     96% 0.0 mm 0 W/m2
03:32 6.9 °C 6.3 °C 1023.7 hPa Calm     96% 0.0 mm 0 W/m2
03:37 6.8 °C 6.4 °C 1023.7 hPa Calm     97% 0.0 mm 0 W/m2
03:42 6.8 °C 6.4 °C 1023.7 hPa Calm     97% 0.0 mm 0 W/m2
03:47 7 °C 6.6 °C 1023.7 hPa Calm     97% 0.2 mm 0 W/m2
03:52 7.2 °C 6.8 °C 1023.7 hPa Calm     97% 0.2 mm 0 W/m2
03:57 7.3 °C 6.9 °C 1024.0 hPa Calm     97% 0.2 mm 0 W/m2
04:02 7.5 °C 7.1 °C 1024.0 hPa Calm     97% 0.2 mm 0 W/m2
04:07 7.6 °C 7.2 °C 1023.7 hPa Calm     97% 0.2 mm 0 W/m2
04:12 7.6 °C 7.2 °C 1023.7 hPa Calm     97% 0.2 mm 0 W/m2
04:17 7.6 °C 7.2 °C 1023.7 hPa Calm     97% 0.2 mm 0 W/m2
04:22 7.6 °C 7.2 °C 1023.7 hPa Calm     97% 0.2 mm 0 W/m2
04:27 7.6 °C 7.2 °C 1024.0 hPa Calm     97% 0.2 mm 0 W/m2
04:32 7.4 °C 7 °C 1024.0 hPa Calm     97% 0.2 mm 0 W/m2
04:37 7.3 °C 6.9 °C 1024.0 hPa Calm     97% 0.2 mm 0 W/m2
04:42 7.2 °C 6.8 °C 1024.0 hPa Calm     97% 0.2 mm 0 W/m2
04:47 7.2 °C 6.8 °C 1024.0 hPa Calm     97% 0.0 mm 0 W/m2
04:52 7.1 °C 6.7 °C 1024.0 hPa Calm     97% 0.0 mm 0 W/m2
04:57 6.9 °C 6.3 °C 1024.0 hPa Calm     96% 0.0 mm 0 W/m2
05:02 6.9 °C 6.5 °C 1024.0 hPa Calm     97% 0.0 mm 0 W/m2
05:07 6.8 °C 6.4 °C 1024.0 hPa Calm     97% 0.0 mm 0 W/m2
Juneau County Weather
Compliments of Weather Underground - 4 mb